Time;durP1;ratioP1;P1;durP2;ratioP2;P2;SDS_P1;SDS_P2;PMS_P1;PMS_P2;Temp;Humidity;BMP_temperature;BMP_pressure;BME280_temperature;BME280_humidity;BME280_pressure;Samples;Min_cycle;Max_cycle;Signal;HPM_P1;HPM_P2
2023/04/22 00:01:18;;;;;;;8.68;5.90;;;;;;;7.52;100.00;98625.16;5051335;28;20051;-60
2023/04/22 00:03:45;;;;;;;8.52;5.85;;;;;;;7.42;100.00;98619.63;5051563;28;20032;-59
2023/04/22 00:06:13;;;;;;;7.60;5.65;;;;;;;7.60;100.00;98628.47;5053516;28;20049;-59
2023/04/22 00:08:40;;;;;;;8.45;5.55;;;;;;;7.47;100.00;98627.72;5057511;28;20565;-59
2023/04/22 00:11:08;;;;;;;7.50;5.30;;;;;;;7.44;100.00;98620.19;5052248;28;20033;-60
2023/04/22 00:13:35;;;;;;;10.65;5.10;;;;;;;7.54;100.00;98630.25;5057272;28;20044;-59
2023/04/22 00:16:03;;;;;;;7.22;5.05;;;;;;;7.49;100.00;98628.28;5056425;28;20128;-59
2023/04/22 00:18:30;;;;;;;6.63;4.57;;;;;;;7.52;100.00;98625.16;5055340;28;20036;-59
2023/04/22 00:21:00;;;;;;;7.45;5.20;;;;;;;7.35;100.00;98629.59;5052983;28;20032;-59
2023/04/22 00:23:26;;;;;;;11.15;5.40;;;;;;;7.48;100.00;98624.00;5054875;28;20041;-59
2023/04/22 00:25:53;;;;;;;10.50;6.00;;;;;;;7.60;100.00;98620.47;5050695;28;20048;-59
2023/04/22 00:28:22;;;;;;;8.70;5.47;;;;;;;7.51;100.00;98625.38;5047381;28;20080;-60
2023/04/22 00:30:49;;;;;;;7.35;5.13;;;;;;;7.55;100.00;98619.34;5052105;28;20045;-59
2023/04/22 00:33:16;;;;;;;9.07;5.40;;;;;;;7.67;100.00;98626.50;5056221;28;20103;-59
2023/04/22 00:35:44;;;;;;;9.43;5.07;;;;;;;7.75;100.00;98618.09;5052276;28;20064;-59
2023/04/22 00:38:11;;;;;;;8.40;5.53;;;;;;;7.77;100.00;98624.00;5058909;28;20110;-61
2023/04/22 00:40:38;;;;;;;7.43;5.38;;;;;;;7.73;100.00;98630.84;5047437;28;20053;-59
2023/04/22 00:43:05;;;;;;;8.57;5.40;;;;;;;7.68;100.00;98633.44;5058075;28;20041;-60
2023/04/22 00:45:33;;;;;;;9.48;5.25;;;;;;;7.69;100.00;98624.41;5055952;28;20040;-59
2023/04/22 00:48:00;;;;;;;9.27;5.90;;;;;;;7.55;100.00;98630.00;5055317;28;20131;-60
2023/04/22 00:50:27;;;;;;;7.65;5.32;;;;;;;7.44;100.00;98622.84;5057271;28;20040;-60
2023/04/22 00:52:55;;;;;;;9.02;6.20;;;;;;;7.57;100.00;98625.25;5060363;28;20068;-59
2023/04/22 00:55:22;;;;;;;9.20;5.40;;;;;;;7.72;100.00;98626.59;5055437;28;20045;-60
2023/04/22 00:57:50;;;;;;;7.75;5.47;;;;;;;7.71;100.00;98619.63;5052515;28;20095;-61
2023/04/22 01:00:18;;;;;;;7.68;5.60;;;;;;;7.66;100.00;98624.84;5072160;28;20144;-60
2023/04/22 01:02:47;;;;;;;8.45;5.38;;;;;;;7.69;100.00;98622.53;5054199;28;20041;-59
2023/04/22 01:05:14;;;;;;;8.07;5.68;;;;;;;7.80;100.00;98620.84;5056473;28;20040;-59
2023/04/22 01:07:41;;;;;;;8.40;5.50;;;;;;;7.78;100.00;98614.94;5054968;28;20121;-59
2023/04/22 01:10:09;;;;;;;9.82;5.53;;;;;;;7.89;100.00;98615.97;5044022;28;20367;-59
2023/04/22 01:12:36;;;;;;;8.30;5.90;;;;;;;7.72;100.00;98610.59;5058612;28;20040;-59
2023/04/22 01:15:03;;;;;;;11.25;6.72;;;;;;;7.76;100.00;98614.38;5052189;28;20446;-59
2023/04/22 01:17:32;;;;;;;9.30;6.45;;;;;;;7.81;100.00;98608.31;5048644;28;20365;-60
2023/04/22 01:20:04;;;;;;;10.88;6.80;;;;;;;7.80;100.00;98610.19;5053443;28;20037;-60
2023/04/22 01:22:34;;;;;;;9.23;6.38;;;;;;;7.85;100.00;98612.94;5052169;28;20055;-59
2023/04/22 01:25:03;;;;;;;8.98;5.47;;;;;;;7.78;100.00;98607.75;5056991;28;20037;-59
2023/04/22 01:27:30;;;;;;;8.77;5.72;;;;;;;7.74;100.00;98608.50;5049653;28;20055;-59
2023/04/22 01:29:57;;;;;;;8.73;5.78;;;;;;;7.72;100.00;98613.25;5059061;28;20053;-59
2023/04/22 01:32:24;;;;;;;7.57;5.55;;;;;;;7.69;100.00;98606.53;5060270;28;20429;-59
2023/04/22 01:34:55;;;;;;;9.15;4.97;;;;;;;7.60;100.00;98612.47;5058874;28;20056;-59
2023/04/22 01:37:22;;;;;;;9.40;5.65;;;;;;;7.54;100.00;98607.06;5054422;28;20084;-59
2023/04/22 01:39:49;;;;;;;9.63;6.13;;;;;;;7.63;100.00;98607.47;5059697;28;20041;-59
2023/04/22 01:42:17;;;;;;;8.48;5.88;;;;;;;7.55;100.00;98599.84;5057297;28;20086;-60
2023/04/22 01:44:45;;;;;;;9.75;6.68;;;;;;;7.68;100.00;98604.91;5073336;28;20045;-60
2023/04/22 01:47:13;;;;;;;11.35;6.53;;;;;;;7.73;100.00;98596.19;5055965;28;20048;-59
2023/04/22 01:49:40;;;;;;;10.18;6.85;;;;;;;7.77;100.00;98592.00;5059682;28;20052;-59
2023/04/22 01:52:07;;;;;;;12.45;6.68;;;;;;;7.79;100.00;98603.25;5049098;28;20048;-59
2023/04/22 01:54:34;;;;;;;9.35;6.25;;;;;;;7.81;100.00;98594.97;5055486;28;20056;-60
2023/04/22 01:57:08;;;;;;;10.55;6.72;;;;;;;7.88;100.00;98591.13;5054970;28;20543;-59
2023/04/22 01:59:37;;;;;;;9.70;6.30;;;;;;;7.76;100.00;98599.19;5055016;28;20041;-60
2023/04/22 02:02:04;;;;;;;10.35;6.70;;;;;;;7.65;100.00;98593.91;5051240;28;20056;-60
2023/04/22 02:04:31;;;;;;;11.82;6.88;;;;;;;7.63;100.00;98591.47;5056024;28;20445;-60
2023/04/22 02:06:58;;;;;;;13.90;7.50;;;;;;;7.66;100.00;98593.69;5054512;28;20041;-60
2023/04/22 02:09:25;;;;;;;9.57;6.38;;;;;;;7.59;100.00;98589.50;5045863;28;20478;-60
2023/04/22 02:11:52;;;;;;;9.80;6.55;;;;;;;7.68;100.00;98590.75;5054896;28;20773;-59
2023/04/22 02:14:25;;;;;;;10.55;6.63;;;;;;;7.62;100.00;98602.41;5076604;28;20056;-61
2023/04/22 02:16:53;;;;;;;9.43;6.10;;;;;;;7.69;100.00;98598.53;5058510;28;20064;-59
2023/04/22 02:19:21;;;;;;;8.85;5.50;;;;;;;7.61;100.00;98595.41;5080861;28;20052;-59
2023/04/22 02:21:48;;;;;;;7.88;5.82;;;;;;;7.50;100.00;98597.91;5060226;28;20044;-61
2023/04/22 02:24:15;;;;;;;10.52;6.30;;;;;;;7.46;100.00;98598.59;5060861;28;20044;-59
2023/04/22 02:26:42;;;;;;;9.27;6.88;;;;;;;7.43;100.00;98593.75;5052631;28;20398;-60
2023/04/22 02:29:09;;;;;;;11.65;7.40;;;;;;;7.44;100.00;98592.69;5048014;28;20130;-60
2023/04/22 02:31:36;;;;;;;12.65;7.68;;;;;;;7.41;100.00;98596.66;5058044;28;20544;-60
2023/04/22 02:34:05;;;;;;;10.13;7.35;;;;;;;7.41;100.00;98596.66;5073052;28;20064;-59
2023/04/22 02:36:33;;;;;;;11.35;7.30;;;;;;;7.54;100.00;98591.06;5064715;28;20102;-60
2023/04/22 02:39:02;;;;;;;11.77;7.50;;;;;;;7.54;100.00;98599.06;5055038;28;20140;-60
2023/04/22 02:41:29;;;;;;;10.82;7.28;;;;;;;7.54;100.00;98604.38;5061534;28;20499;-61
2023/04/22 02:43:56;;;;;;;11.60;8.10;;;;;;;7.46;100.00;98603.94;5056679;28;20450;-60
2023/04/22 02:46:24;;;;;;;13.00;8.15;;;;;;;7.48;100.00;98602.66;5069453;28;20037;-59
2023/04/22 02:48:52;;;;;;;16.73;9.73;;;;;;;7.45;100.00;98600.47;5055509;28;20053;-59
2023/04/22 02:51:22;;;;;;;;;;;;;;;7.32;100.00;98601.56;5056557;28;20040;-59
2023/04/22 02:53:52;;;;;;;14.75;9.00;;;;;;;7.34;100.00;98593.34;5061072;28;20393;-59
2023/04/22 02:56:20;;;;;;;23.63;9.52;;;;;;;7.28;100.00;98597.72;5055378;28;20114;-59
2023/04/22 02:58:47;;;;;;;15.32;9.98;;;;;;;7.11;100.00;98589.69;5052126;28;20037;-60
2023/04/22 03:01:14;;;;;;;19.30;9.85;;;;;;;7.12;100.00;98599.28;5059993;28;20094;-59
2023/04/22 03:03:41;;;;;;;15.80;9.85;;;;;;;7.18;100.00;98591.41;5054803;28;20052;-59
2023/04/22 03:06:11;;;;;;;19.17;10.15;;;;;;;7.24;100.00;98595.78;5062062;28;20041;-60
2023/04/22 03:08:39;;;;;;;17.00;10.30;;;;;;;7.21;100.00;98596.25;5056256;28;20121;-59
2023/04/22 03:11:06;;;;;;;16.15;9.65;;;;;;;7.30;100.00;98602.84;5057733;28;20037;-59
2023/04/22 03:13:34;;;;;;;16.63;9.68;;;;;;;7.40;100.00;98596.91;5057956;28;20157;-60
2023/04/22 03:16:01;;;;;;;16.45;11.07;;;;;;;7.45;100.00;98607.66;5053699;28;20045;-60
2023/04/22 03:18:28;;;;;;;17.10;11.48;;;;;;;7.46;100.00;98599.44;5063169;28;20056;-59
2023/04/22 03:20:55;;;;;;;16.15;10.30;;;;;;;7.45;100.00;98599.66;5073810;28;20506;-59
2023/04/22 03:23:23;;;;;;;16.35;10.63;;;;;;;7.48;100.00;98599.19;5061840;28;20476;-59
2023/04/22 03:25:52;;;;;;;17.58;10.25;;;;;;;7.40;100.00;98600.38;5056755;28;20071;-59
2023/04/22 03:28:19;;;;;;;16.52;11.07;;;;;;;7.37;100.00;98600.84;5045664;28;20721;-59
2023/04/22 03:30:47;;;;;;;16.70;10.73;;;;;;;7.28;100.00;98605.72;5057278;28;20483;-60
2023/04/22 03:33:14;;;;;;;16.65;10.45;;;;;;;7.25;100.00;98603.53;5060869;28;20045;-60
2023/04/22 03:35:54;;;;;;;15.90;10.52;;;;;;;7.21;100.00;98605.06;5057168;28;20114;-60
2023/04/22 03:38:21;;;;;;;16.77;10.75;;;;;;;7.23;100.00;98597.63;5058728;28;20052;-59
2023/04/22 03:40:52;;;;;;;21.77;11.38;;;;;;;7.12;100.00;98606.47;5060671;28;20491;-59
2023/04/22 03:43:28;;;;;;;17.70;10.43;;;;;;;7.28;100.00;98591.59;5051384;28;20039;-59
2023/04/22 03:46:02;;;;;;;14.95;8.38;;;;;;;7.25;100.00;98595.53;5055294;28;20041;-60
2023/04/22 03:48:34;;;;;;;15.10;8.82;;;;;;;7.22;100.00;98598.69;5063788;28;20501;-59
2023/04/22 03:51:02;;;;;;;18.17;9.00;;;;;;;6.98;100.00;98589.94;5061349;28;20308;-60
2023/04/22 03:53:32;;;;;;;;;;;;;;;7.32;100.00;98592.75;5062393;28;20040;-59
2023/04/22 03:56:00;;;;;;;16.65;10.55;;;;;;;6.91;100.00;98583.91;5076285;28;20378;-60
2023/04/22 03:58:27;;;;;;;18.52;12.10;;;;;;;6.99;100.00;98583.56;5061179;28;20053;-60
2023/04/22 04:00:57;;;;;;;21.25;12.85;;;;;;;6.93;100.00;98579.16;5061543;28;20176;-60
2023/04/22 04:03:25;;;;;;;21.60;13.65;;;;;;;6.89;100.00;98575.38;5044090;28;20048;-59
2023/04/22 04:05:53;;;;;;;22.67;11.70;;;;;;;7.07;100.00;98571.75;5052454;28;20045;-60
2023/04/22 04:08:21;;;;;;;23.10;13.45;;;;;;;6.90;100.00;98566.31;5063072;28;20079;-59
2023/04/22 04:10:49;;;;;;;26.15;16.35;;;;;;;6.80;100.00;98569.56;5061523;28;20040;-60
2023/04/22 04:13:17;;;;;;;23.33;15.45;;;;;;;6.99;100.00;98567.59;5046822;28;20131;-59
2023/04/22 04:16:00;;;;;;;24.95;14.88;;;;;;;6.89;100.00;98564.72;5063624;28;20044;-59
2023/04/22 04:18:29;;;;;;;24.67;15.27;;;;;;;6.92;100.00;98566.91;5051722;28;20415;-60
2023/04/22 04:20:56;;;;;;;24.30;14.57;;;;;;;6.80;100.00;98550.94;5058882;28;20095;-60
2023/04/22 04:23:25;;;;;;;25.55;15.13;;;;;;;6.82;100.00;98556.84;5060125;28;20466;-60
2023/04/22 04:25:54;;;;;;;24.08;14.05;;;;;;;6.90;100.00;98553.00;5071871;28;20128;-60
2023/04/22 04:28:24;;;;;;;22.13;14.07;;;;;;;6.94;100.00;98551.50;5058806;28;20128;-59
2023/04/22 04:30:52;;;;;;;29.80;15.07;;;;;;;7.06;100.00;98546.94;5053382;28;20121;-59
2023/04/22 04:33:19;;;;;;;26.73;15.38;;;;;;;7.17;100.00;98541.81;5052519;28;20045;-59
2023/04/22 04:35:47;;;;;;;23.77;14.20;;;;;;;7.08;100.00;98550.16;5060904;28;20127;-60
2023/04/22 04:38:18;;;;;;;21.55;12.18;;;;;;;7.00;100.00;98542.53;5044414;28;20567;-60
2023/04/22 04:40:45;;;;;;;19.20;11.05;;;;;;;7.03;100.00;98552.72;5060247;28;20545;-60
2023/04/22 04:43:19;;;;;;;19.02;11.77;;;;;;;7.08;100.00;98555.50;5058076;28;20044;-60
2023/04/22 04:45:52;;;;;;;19.27;11.60;;;;;;;7.23;100.00;98559.50;5052195;28;20045;-60
2023/04/22 04:48:26;;;;;;;20.35;11.60;;;;;;;7.26;100.00;98561.69;5053008;28;20133;-60
2023/04/22 04:50:58;;;;;;;16.63;10.60;;;;;;;7.21;100.00;98561.59;5057609;28;20044;-60
2023/04/22 04:53:28;;;;;;;24.17;11.57;;;;;;;7.16;100.00;98561.50;5059708;28;20051;-60
2023/04/22 04:55:56;;;;;;;27.35;16.02;;;;;;;7.16;100.00;98566.84;5060955;28;20040;-60
2023/04/22 04:58:26;;;;;;;29.58;17.30;;;;;;;7.24;100.00;98563.78;5061350;28;20041;-59
2023/04/22 05:01:15;;;;;;;29.75;16.65;;;;;;;7.37;100.00;98563.53;5053635;28;20102;-60
2023/04/22 05:03:43;;;;;;;26.08;14.95;;;;;;;7.50;100.00;98568.56;5052784;28;20253;-59
2023/04/22 05:06:12;;;;;;;30.48;16.75;;;;;;;7.37;100.00;98563.53;5060018;28;20824;-60
2023/04/22 05:08:42;;;;;;;36.15;19.02;;;;;;;7.64;100.00;98566.44;5053619;28;20041;-60
2023/04/22 05:11:10;;;;;;;23.95;14.40;;;;;;;7.86;100.00;98571.91;5060809;28;20040;-60
2023/04/22 05:13:37;;;;;;;22.65;11.88;;;;;;;8.05;100.00;98577.00;5057605;28;20455;-60
2023/04/22 05:16:06;;;;;;;17.40;11.75;;;;;;;8.38;100.00;98586.84;5059151;28;20253;-60
2023/04/22 05:18:34;;;;;;;19.23;11.27;;;;;;;8.67;100.00;98592.94;5051501;28;20045;-60
2023/04/22 05:21:06;;;;;;;17.45;10.75;;;;;;;10.12;98.14;98597.00;5059720;28;20064;-59
2023/04/22 05:23:34;;;;;;;21.63;13.50;;;;;;;10.06;95.23;98604.19;5054600;28;20132;-59
2023/04/22 05:26:01;;;;;;;24.65;13.40;;;;;;;10.00;98.60;98588.31;5050957;28;20516;-59
2023/04/22 05:28:30;;;;;;;19.35;11.50;;;;;;;10.14;94.70;98584.19;5062089;28;20048;-59
2023/04/22 05:30:57;;;;;;;16.48;10.23;;;;;;;9.81;97.27;98591.38;5057291;28;20044;-59
2023/04/22 05:33:27;;;;;;;21.83;10.88;;;;;;;9.77;96.14;98590.25;5053182;28;20049;-59
2023/04/22 05:35:56;;;;;;;19.75;11.55;;;;;;;9.70;96.28;98592.31;5061115;28;20066;-59
2023/04/22 05:38:23;;;;;;;16.70;11.18;;;;;;;10.04;96.19;98600.97;5052620;28;20493;-59
2023/04/22 05:40:51;;;;;;;19.20;11.68;;;;;;;10.63;91.28;98596.63;5058600;28;20342;-59
2023/04/22 05:43:19;;;;;;;18.35;11.82;;;;;;;10.27;93.19;98593.66;5056268;28;20099;-59
2023/04/22 05:45:53;;;;;;;17.65;11.48;;;;;;;10.06;93.82;98580.09;5058661;28;20056;-59
2023/04/22 05:48:21;;;;;;;19.58;11.15;;;;;;;10.02;93.58;98572.81;5060534;28;20056;-59
2023/04/22 05:50:58;;;;;;;16.67;11.15;;;;;;;10.26;93.17;98575.94;5064459;28;20052;-59
2023/04/22 05:53:28;;;;;;;21.67;12.48;;;;;;;10.43;93.60;98584.69;5055809;28;20057;-59
2023/04/22 05:55:56;;;;;;;19.58;12.88;;;;;;;11.36;87.98;98576.06;5046518;28;20049;-59
2023/04/22 05:58:24;;;;;;;24.35;13.15;;;;;;;12.03;86.24;98592.34;5061547;28;20036;-59
2023/04/22 06:00:55;;;;;;;21.08;11.55;;;;;;;12.05;84.79;98577.56;5078573;28;20049;-59
2023/04/22 06:03:40;;;;;;;21.92;13.02;;;;;;;12.30;83.34;98582.16;5056372;28;20044;-59
2023/04/22 06:06:09;;;;;;;23.73;13.95;;;;;;;12.87;79.57;98579.38;5057258;28;20040;-59
2023/04/22 06:08:36;;;;;;;24.30;14.60;;;;;;;13.58;76.87;98573.75;5059150;28;20071;-59
2023/04/22 06:11:03;;;;;;;24.55;14.20;;;;;;;16.22;67.78;98572.28;5067945;28;20040;-60
2023/04/22 06:13:33;;;;;;;;;;;;;;;17.25;62.78;98571.25;5064633;28;20045;-59
2023/04/22 06:16:00;;;;;;;23.85;13.20;;;;;;;17.77;60.24;98571.78;5058782;28;19974;-59
2023/04/22 06:18:28;;;;;;;22.77;14.13;;;;;;;17.87;58.41;98571.56;5056831;28;20291;-59
2023/04/22 06:20:55;;;;;;;22.08;14.20;;;;;;;18.32;56.95;98574.28;5059727;28;20274;-59
2023/04/22 06:23:24;;;;;;;21.95;13.55;;;;;;;18.61;56.33;98567.59;5058763;28;20549;-59
2023/04/22 06:25:51;;;;;;;18.73;12.18;;;;;;;19.35;53.75;98580.53;5064229;28;20555;-59
2023/04/22 06:28:18;;;;;;;20.75;13.23;;;;;;;18.89;55.12;98575.56;5061108;28;20140;-59
2023/04/22 06:30:47;;;;;;;23.98;12.77;;;;;;;16.24;65.09;98580.09;5057024;28;20048;-59
2023/04/22 06:33:15;;;;;;;21.50;12.77;;;;;;;16.38;63.84;98580.97;5057448;28;20142;-59
2023/04/22 06:35:42;;;;;;;24.15;13.68;;;;;;;18.10;58.13;98583.22;5063728;28;20732;-59
2023/04/22 06:38:09;;;;;;;18.08;12.15;;;;;;;18.65;56.29;98590.28;5062811;28;20044;-59
2023/04/22 06:40:45;;;;;;;16.50;11.32;;;;;;;18.76;55.63;98588.13;5063329;28;20547;-59
2023/04/22 06:43:25;;;;;;;17.88;11.43;;;;;;;19.77;51.98;98591.03;5053678;28;20055;-59
2023/04/22 06:46:11;;;;;;;14.10;10.00;;;;;;;19.73;52.58;98581.91;5055329;28;20037;-59
2023/04/22 06:48:58;;;;;;;14.20;9.95;;;;;;;18.86;53.47;98578.91;5040928;28;20515;-60
2023/04/22 06:51:44;;;;;;;12.95;9.45;;;;;;;19.07;54.95;98584.59;5054939;28;20041;-59
2023/04/22 06:54:12;;;;;;;14.68;9.68;;;;;;;19.17;55.11;98587.84;5070257;28;20537;-59
2023/04/22 06:56:40;;;;;;;11.70;9.75;;;;;;;20.76;50.85;98587.56;5056407;28;20068;-60
2023/04/22 06:59:08;;;;;;;12.07;9.55;;;;;;;20.77;51.48;98581.81;5058606;28;20045;-59
2023/04/22 07:01:36;;;;;;;10.73;8.52;;;;;;;21.40;50.14;98578.53;5037940;28;20048;-60
2023/04/22 07:04:03;;;;;;;16.27;8.75;;;;;;;21.17;50.86;98581.50;5056282;28;20562;-60
2023/04/22 07:06:30;;;;;;;12.63;8.90;;;;;;;21.03;52.06;98587.16;5064797;28;20499;-60
2023/04/22 07:08:57;;;;;;;13.38;8.05;;;;;;;21.78;50.68;98570.22;5060881;28;20507;-59
2023/04/22 07:11:25;;;;;;;13.75;8.40;;;;;;;21.95;50.08;98577.50;5060635;28;20082;-60
2023/04/22 07:14:00;;;;;;;11.75;7.75;;;;;;;21.21;51.52;98576.97;5062053;28;20072;-60
2023/04/22 07:16:28;;;;;;;11.65;7.57;;;;;;;20.68;52.89;98581.84;5059427;28;20094;-58
2023/04/22 07:18:56;;;;;;;10.60;8.00;;;;;;;20.42;53.55;98573.72;5057637;28;20248;-58
2023/04/22 07:21:23;;;;;;;9.38;7.07;;;;;;;20.96;52.38;98572.44;5057443;28;20139;-59
2023/04/22 07:23:50;;;;;;;14.98;7.45;;;;;;;21.55;50.83;98569.75;5056458;28;20107;-58
2023/04/22 07:26:17;;;;;;;11.55;6.57;;;;;;;21.83;50.15;98563.78;5049845;28;20075;-58
2023/04/22 07:28:44;;;;;;;13.95;7.10;;;;;;;21.72;50.51;98561.47;5051015;28;20064;-59
2023/04/22 07:31:13;;;;;;;10.82;6.32;;;;;;;22.45;49.36;98562.94;5050298;28;20173;-58
2023/04/22 07:33:40;;;;;;;8.37;6.40;;;;;;;23.16;46.30;98559.03;5056862;28;20134;-59
2023/04/22 07:36:07;;;;;;;6.50;4.57;;;;;;;21.94;47.39;98559.50;5053926;28;20555;-59
2023/04/22 07:38:35;;;;;;;8.75;5.95;;;;;;;23.24;46.01;98565.56;5051865;28;20135;-58
2023/04/22 07:41:02;;;;;;;6.85;3.05;;;;;;;22.68;43.52;98557.06;5051665;28;20052;-58
2023/04/22 07:43:29;;;;;;;6.30;4.28;;;;;;;21.13;48.38;98569.66;5054294;28;20315;-58
2023/04/22 07:45:56;;;;;;;7.28;4.60;;;;;;;18.64;58.60;98566.97;5057883;28;20087;-58
2023/04/22 07:48:24;;;;;;;7.95;5.50;;;;;;;20.21;50.93;98561.88;5059460;28;20277;-59
2023/04/22 07:50:54;;;;;;;4.95;2.83;;;;;;;16.88;57.16;98556.81;5055604;28;20818;-58
2023/04/22 07:53:21;;;;;;;4.05;2.72;;;;;;;18.67;54.29;98558.22;5057016;28;20184;-60
2023/04/22 07:55:48;;;;;;;6.60;3.13;;;;;;;18.34;53.53;98557.69;5055874;28;20319;-58
2023/04/22 07:58:15;;;;;;;3.92;2.65;;;;;;;18.72;53.17;98552.66;5055367;28;20535;-58
2023/04/22 08:00:42;;;;;;;4.57;3.00;;;;;;;17.67;55.17;98540.28;5055975;28;20430;-58
2023/04/22 08:03:09;;;;;;;5.57;3.03;;;;;;;19.24;52.81;98540.38;5055509;28;20045;-59
2023/04/22 08:05:38;;;;;;;5.40;2.97;;;;;;;18.16;53.38;98540.50;5055315;28;20052;-60
2023/04/22 08:08:05;;;;;;;5.65;2.70;;;;;;;17.54;56.50;98534.88;5056921;28;20045;-59
2023/04/22 08:10:32;;;;;;;4.78;2.53;;;;;;;19.05;52.72;98543.38;5051982;28;20090;-59
2023/04/22 08:12:59;;;;;;;4.45;2.72;;;;;;;19.35;52.04;98533.53;5057174;28;20105;-59
2023/04/22 08:15:26;;;;;;;4.57;2.83;;;;;;;19.64;52.41;98529.41;5054672;28;20131;-59
2023/04/22 08:17:54;;;;;;;5.07;2.75;;;;;;;19.79;50.29;98528.97;5057354;28;20150;-59
2023/04/22 08:20:21;;;;;;;5.38;3.05;;;;;;;18.62;53.30;98523.06;5047567;28;20439;-59
2023/04/22 08:22:55;;;;;;;5.07;2.90;;;;;;;18.40;51.99;98520.41;5059302;28;20035;-59
2023/04/22 08:25:23;;;;;;;6.53;2.78;;;;;;;20.01;49.40;98525.28;5051138;28;20052;-59
2023/04/22 08:27:50;;;;;;;7.25;2.80;;;;;;;19.76;49.19;98522.25;5050529;28;20090;-59
2023/04/22 08:30:17;;;;;;;7.90;2.63;;;;;;;19.22;50.31;98521.69;5053262;28;20144;-59
2023/04/22 08:32:44;;;;;;;3.75;2.53;;;;;;;20.53;46.89;98517.00;5055731;28;20102;-58
2023/04/22 08:35:11;;;;;;;4.97;2.38;;;;;;;20.73;47.35;98522.88;5054859;28;20422;-59
2023/04/22 08:37:40;;;;;;;3.65;2.50;;;;;;;19.45;47.99;98525.09;5055418;28;20127;-59
2023/04/22 08:40:09;;;;;;;3.80;2.25;;;;;;;18.50;50.27;98525.56;5050242;28;20087;-59
2023/04/22 08:42:37;;;;;;;4.25;2.47;;;;;;;19.02;50.85;98517.66;5056055;28;20135;-59
2023/04/22 08:45:08;;;;;;;6.00;2.40;;;;;;;18.41;52.16;98522.00;5055449;28;20488;-60
2023/04/22 08:47:35;;;;;;;4.00;2.40;;;;;;;18.69;51.66;98525.31;5052088;28;20033;-60
2023/04/22 08:50:03;;;;;;;5.03;2.30;;;;;;;18.76;50.39;98520.28;5051801;28;20486;-58
2023/04/22 08:52:30;;;;;;;4.20;2.30;;;;;;;19.02;50.79;98511.41;5053598;28;20527;-60
2023/04/22 08:54:57;;;;;;;6.75;2.67;;;;;;;19.71;49.29;98510.72;5060203;28;20036;-59
2023/04/22 08:57:26;;;;;;;6.40;2.60;;;;;;;20.72;48.31;98510.38;5055144;28;20044;-60
2023/04/22 08:59:54;;;;;;;7.63;2.30;;;;;;;19.36;50.30;98511.47;5056664;28;20048;-60
2023/04/22 09:02:21;;;;;;;5.00;2.25;;;;;;;20.21;47.78;98499.31;5052543;28;20048;-60
2023/04/22 09:04:52;;;;;;;7.63;2.65;;;;;;;20.10;48.58;98500.78;5055287;28;20036;-58
2023/04/22 09:07:22;;;;;;;3.70;2.28;;;;;;;19.99;48.88;98498.41;5054361;28;20469;-60
2023/04/22 09:09:49;;;;;;;5.07;2.50;;;;;;;18.61;48.98;98504.38;5061135;28;20155;-59
2023/04/22 09:12:17;;;;;;;7.10;2.30;;;;;;;19.28;47.15;98487.03;5056543;28;20152;-60
2023/04/22 09:14:46;;;;;;;3.90;2.20;;;;;;;18.91;47.51;98489.19;5052156;28;20052;-60
2023/04/22 09:17:16;;;;;;;3.22;2.30;;;;;;;19.14;46.17;98487.16;5053037;28;20041;-59
2023/04/22 09:19:43;;;;;;;4.68;2.40;;;;;;;19.94;46.29;98481.44;5042688;28;20067;-60
2023/04/22 09:22:12;;;;;;;4.13;2.30;;;;;;;19.78;45.99;98481.16;5059874;28;20079;-60
2023/04/22 09:24:43;;;;;;;4.78;2.20;;;;;;;19.86;45.80;98474.91;5061999;28;20068;-59
2023/04/22 09:27:11;;;;;;;6.78;2.25;;;;;;;20.10;45.41;98473.59;5054876;28;20040;-58
2023/04/22 09:29:38;;;;;;;4.50;1.90;;;;;;;18.91;46.94;98481.81;5050217;28;20064;-58
2023/04/22 09:32:11;;;;;;;4.30;2.30;;;;;;;20.68;45.97;98475.66;5056548;28;20045;-58
2023/04/22 09:34:46;;;;;;;5.13;2.53;;;;;;;20.83;44.30;98462.59;5061191;28;20290;-58
2023/04/22 09:37:13;;;;;;;6.63;2.50;;;;;;;20.75;44.00;98468.91;5060022;28;20045;-59
2023/04/22 09:39:42;;;;;;;4.05;2.05;;;;;;;20.80;44.55;98466.78;5058053;28;20048;-59
2023/04/22 09:42:10;;;;;;;3.95;2.40;;;;;;;20.69;44.87;98481.88;5057211;28;20053;-58
2023/04/22 09:44:36;;;;;;;4.80;2.15;;;;;;;18.99;48.03;98485.69;5064704;28;20067;-60
2023/04/22 09:47:03;;;;;;;6.70;2.70;;;;;;;18.19;50.56;98482.13;5062632;28;20056;-60
2023/04/22 09:49:35;;;;;;;4.03;2.25;;;;;;;18.21;50.45;98478.00;5054095;28;20124;-60
2023/04/22 09:52:02;;;;;;;4.60;2.50;;;;;;;18.79;50.60;98475.41;5055048;28;20480;-60
2023/04/22 09:54:29;;;;;;;4.40;2.40;;;;;;;18.77;50.16;98483.06;5056810;28;20102;-60
2023/04/22 09:56:58;;;;;;;3.70;2.42;;;;;;;19.35;48.95;98477.28;5067005;28;20044;-59
2023/04/22 09:59:26;;;;;;;4.57;2.60;;;;;;;18.49;51.33;98477.81;5054385;28;20044;-59
2023/04/22 10:01:55;;;;;;;4.90;2.70;;;;;;;17.91;54.65;98478.78;5061129;28;20127;-59
2023/04/22 10:04:23;;;;;;;4.90;2.10;;;;;;;19.07;51.02;98479.50;5057139;28;20036;-59
2023/04/22 10:06:52;;;;;;;3.97;2.40;;;;;;;19.60;50.06;98466.75;5058454;28;20076;-59
2023/04/22 10:09:20;;;;;;;8.40;2.60;;;;;;;20.13;49.87;98472.94;5061461;28;20075;-59
2023/04/22 10:11:47;;;;;;;3.65;2.20;;;;;;;21.72;45.39;98466.00;5053987;28;20064;-59
2023/04/22 10:14:14;;;;;;;4.85;2.20;;;;;;;20.99;45.39;98462.81;5061292;28;20124;-59
2023/04/22 10:16:43;;;;;;;4.93;2.17;;;;;;;20.80;45.88;98461.34;5055889;28;20160;-59
2023/04/22 10:19:12;;;;;;;6.33;2.30;;;;;;;20.56;45.91;98461.94;5062768;28;20088;-59
2023/04/22 10:21:40;;;;;;;14.52;2.60;;;;;;;21.11;47.04;98468.38;5057277;28;20425;-58
2023/04/22 10:24:10;;;;;;;8.30;2.42;;;;;;;22.24;43.74;98469.38;5058848;28;20045;-59
2023/04/22 10:26:47;;;;;;;4.05;2.00;;;;;;;20.14;44.64;98464.44;5055025;28;20049;-61
2023/04/22 10:29:16;;;;;;;4.97;2.20;;;;;;;21.24;43.46;98461.88;5049379;28;20041;-60
2023/04/22 10:31:43;;;;;;;5.43;2.45;;;;;;;21.51;42.76;98462.50;5057459;28;20048;-59
2023/04/22 10:34:11;;;;;;;5.07;2.03;;;;;;;21.18;43.37;98462.41;5055902;28;20071;-59
2023/04/22 10:36:59;;;;;;;5.85;2.00;;;;;;;21.03;44.77;98467.28;5059772;28;20344;-60
2023/04/22 10:39:28;;;;;;;3.90;2.30;;;;;;;20.82;44.36;98470.00;5054989;28;20076;-60
2023/04/22 10:42:08;;;;;;;3.80;2.30;;;;;;;22.36;41.97;98472.13;5059137;28;20341;-58
2023/04/22 10:44:50;;;;;;;3.67;2.00;;;;;;;22.98;41.06;98465.56;5057654;28;20064;-61
2023/04/22 10:47:28;;;;;;;4.72;2.40;;;;;;;23.04;41.07;98469.69;5058418;28;20395;-59
2023/04/22 10:50:11;;;;;;;4.65;2.00;;;;;;;24.29;40.19;98453.28;5060890;28;20037;-60
2023/04/22 10:52:38;;;;;;;5.40;2.35;;;;;;;23.53;39.55;98463.28;5057895;28;20391;-60
2023/04/22 10:55:07;;;;;;;5.05;2.20;;;;;;;22.69;40.10;98471.25;5055655;28;20118;-60
2023/04/22 10:57:40;;;;;;;6.03;2.30;;;;;;;21.37;42.81;98470.09;5057861;28;20110;-59
2023/04/22 11:00:32;;;;;;;3.53;2.33;;;;;;;21.75;42.55;98459.88;5057329;28;20033;-60
2023/04/22 11:03:10;;;;;;;7.72;2.65;;;;;;;22.38;42.00;98469.84;5055446;28;20087;-60
2023/04/22 11:05:37;;;;;;;5.00;2.30;;;;;;;22.67;40.96;98465.34;5061860;28;20139;-60
2023/04/22 11:08:05;;;;;;;5.25;2.15;;;;;;;22.52;41.01;98462.16;5060772;28;20053;-60
2023/04/22 11:10:40;;;;;;;4.45;2.55;;;;;;;21.40;42.99;98464.03;5057666;28;20542;-60
2023/04/22 11:13:08;;;;;;;4.30;2.28;;;;;;;21.70;42.65;98462.81;5057373;28;20122;-60
2023/04/22 11:15:36;;;;;;;3.42;2.20;;;;;;;22.12;42.14;98457.28;5058058;28;20037;-59
2023/04/22 11:18:03;;;;;;;3.50;2.13;;;;;;;22.31;41.54;98464.16;5055435;28;20347;-59
2023/04/22 11:20:30;;;;;;;5.82;2.30;;;;;;;22.10;41.29;98454.09;5063247;28;20129;-59
2023/04/22 11:22:57;;;;;;;5.50;2.17;;;;;;;22.55;42.46;98461.47;5058055;28;20306;-59
2023/04/22 11:25:25;;;;;;;5.20;2.25;;;;;;;22.33;41.95;98468.13;5053874;28;20332;-59
2023/04/22 11:27:54;;;;;;;7.57;2.58;;;;;;;22.68;41.78;98456.00;5052624;28;20403;-59
2023/04/22 11:30:21;;;;;;;4.32;2.28;;;;;;;23.29;41.67;98450.50;5050959;28;20045;-60
2023/04/22 11:32:48;;;;;;;3.75;2.20;;;;;;;23.46;40.33;98463.91;5055680;28;20134;-60
2023/04/22 11:35:17;;;;;;;7.35;2.38;;;;;;;22.82;41.43;98457.25;5048062;28;20044;-59